Time;durP1;ratioP1;P1;durP2;ratioP2;P2;SDS_P1;SDS_P2;PMS_P1;PMS_P2;Temp;Humidity;BMP_temperature;BMP_pressure;BME280_temperature;BME280_humidity;BME280_pressure;Samples;Min_cycle;Max_cycle;Signal;HPM_P1;HPM_P2
2021/11/18 00:00:34;;;;;;;53.95;25.05;;;;;;;4.77;76.39;99107.47;5089670;28;20016;-68
2021/11/18 00:03:01;;;;;;;54.22;27.00;;;;;;;4.76;76.34;99108.53;5089352;28;20028;-67
2021/11/18 00:05:27;;;;;;;64.60;29.75;;;;;;;4.77;76.67;99110.19;5089429;28;20085;-67
2021/11/18 00:07:54;;;;;;;86.65;38.28;;;;;;;4.79;76.65;99113.50;5090215;28;20024;-67
2021/11/18 00:10:27;;;;;;;61.55;29.00;;;;;;;4.79;75.73;99109.94;5089697;28;20125;-67
2021/11/18 00:12:53;;;;;;;64.20;32.13;;;;;;;4.79;76.59;99107.22;5089800;28;20024;-67
2021/11/18 00:15:20;;;;;;;63.03;29.77;;;;;;;4.78;76.27;99106.41;5089279;28;20089;-68
2021/11/18 00:17:46;;;;;;;70.30;32.65;;;;;;;4.80;76.41;99100.72;5089112;28;20407;-68
2021/11/18 00:20:14;;;;;;;60.58;28.70;;;;;;;4.80;75.90;99101.56;5089017;28;20118;-67
2021/11/18 00:22:42;;;;;;;73.82;32.95;;;;;;;4.83;76.21;99117.38;5089537;28;20040;-68
2021/11/18 00:25:08;;;;;;;78.60;36.30;;;;;;;4.89;76.14;99108.25;5089529;28;20476;-67
2021/11/18 00:27:34;;;;;;;66.45;33.42;;;;;;;4.90;76.37;99104.44;5089626;28;20027;-68
2021/11/18 00:29:59;;;;;;;60.53;28.50;;;;;;;4.88;76.29;99111.22;5088958;28;20048;-68
2021/11/18 00:32:25;;;;;;;67.22;32.25;;;;;;;4.84;76.32;99118.19;5089273;28;20064;-68
2021/11/18 00:34:50;;;;;;;56.88;26.05;;;;;;;4.80;76.12;99128.75;5089393;28;20646;-67
2021/11/18 00:37:15;;;;;;;47.42;24.80;;;;;;;4.81;76.39;99126.84;5089744;28;20035;-66
2021/11/18 00:39:41;;;;;;;51.95;24.52;;;;;;;4.79;76.39;99134.41;5089416;28;20028;-67
2021/11/18 00:42:06;;;;;;;55.40;26.58;;;;;;;4.80;76.37;99130.63;5071389;28;20047;-68
2021/11/18 00:44:32;;;;;;;51.13;24.10;;;;;;;4.77;76.37;99135.47;5089987;28;21336;-68
2021/11/18 00:46:57;;;;;;;50.60;22.88;;;;;;;4.75;76.37;99137.59;5089562;28;20016;-68
2021/11/18 00:49:22;;;;;;;48.38;24.67;;;;;;;4.74;75.99;99138.66;5070170;28;20472;-67
2021/11/18 00:51:49;;;;;;;48.03;23.20;;;;;;;4.72;76.33;99135.38;5089198;28;20044;-68
2021/11/18 00:54:15;;;;;;;47.92;22.05;;;;;;;4.71;76.17;99131.00;5089147;28;20039;-69
2021/11/18 00:56:43;;;;;;;49.85;23.70;;;;;;;4.68;76.06;99136.94;5089104;28;20032;-68
2021/11/18 00:59:09;;;;;;;45.15;20.55;;;;;;;4.66;76.62;99125.47;5089158;28;20520;-70
2021/11/18 01:01:41;;;;;;;46.63;24.13;;;;;;;4.66;76.41;99130.91;5089053;28;20112;-69
2021/11/18 01:04:07;;;;;;;43.28;21.38;;;;;;;4.67;75.98;99135.28;5092425;28;20031;-69
2021/11/18 01:06:32;;;;;;;46.40;21.42;;;;;;;4.67;75.97;99140.72;5092981;28;20026;-69
2021/11/18 01:08:57;;;;;;;45.33;20.73;;;;;;;4.68;76.16;99139.66;5090343;28;20034;-69
2021/11/18 01:11:26;;;;;;;41.80;19.70;;;;;;;4.67;76.11;99139.88;5092726;28;20442;-69
2021/11/18 01:13:53;;;;;;;40.78;19.45;;;;;;;4.66;76.48;99136.34;5075174;28;20039;-69
2021/11/18 01:16:22;;;;;;;41.25;20.48;;;;;;;4.65;76.92;99140.13;5092587;28;20102;-69
2021/11/18 01:18:48;;;;;;;43.03;20.02;;;;;;;4.66;76.29;99144.50;5088861;28;20491;-69
2021/11/18 01:21:16;;;;;;;52.63;25.05;;;;;;;4.66;76.71;99139.06;5092693;28;20024;-68
2021/11/18 01:23:42;;;;;;;41.88;19.60;;;;;;;4.66;76.62;99138.22;5092907;28;20032;-68
2021/11/18 01:26:11;;;;;;;40.63;20.27;;;;;;;4.65;76.81;99145.56;5093019;28;20052;-70
2021/11/18 01:28:38;;;;;;;44.92;20.58;;;;;;;4.63;76.60;99142.25;5093258;28;20150;-71
2021/11/18 01:31:04;;;;;;;45.60;21.65;;;;;;;4.65;76.72;99145.56;5092412;28;20396;-69
2021/11/18 01:33:30;;;;;;;42.53;20.73;;;;;;;4.66;76.65;99140.94;5091291;28;21352;-69
2021/11/18 01:35:56;;;;;;;38.85;19.85;;;;;;;4.66;76.55;99144.50;5091150;28;20059;-70
2021/11/18 01:38:22;;;;;;;50.03;23.13;;;;;;;4.66;76.65;99144.50;5090631;28;20174;-70
2021/11/18 01:40:54;;;;;;;41.08;20.02;;;;;;;4.67;76.76;99138.00;5091609;28;20103;-70
2021/11/18 01:43:23;;;;;;;41.50;19.95;;;;;;;4.68;76.14;99152.41;5072199;28;20514;-69
2021/11/18 01:45:50;;;;;;;38.22;19.88;;;;;;;4.66;76.97;99158.09;5091690;28;20036;-69
2021/11/18 01:48:16;;;;;;;43.30;19.60;;;;;;;4.63;76.12;99161.28;5089434;28;20020;-69
2021/11/18 01:50:45;;;;;;;38.47;19.52;;;;;;;4.62;76.85;99155.00;5090920;28;20034;-68
2021/11/18 01:53:17;;;;;;;40.95;19.55;;;;;;;4.62;77.02;99155.00;5091646;28;20016;-68
2021/11/18 01:55:43;;;;;;;52.17;24.60;;;;;;;4.64;76.10;99156.66;5073109;28;20034;-68
2021/11/18 01:58:10;;;;;;;47.80;23.42;;;;;;;4.64;76.57;99154.78;5091445;28;20016;-68
2021/11/18 02:00:42;;;;;;;37.75;18.73;;;;;;;4.63;76.68;99153.13;5091152;28;20020;-68
2021/11/18 02:03:07;;;;;;;38.45;19.30;;;;;;;4.63;76.74;99161.28;5089201;28;20085;-69
2021/11/18 02:05:36;;;;;;;38.03;18.73;;;;;;;4.63;77.05;99177.59;5090938;28;20028;-68
2021/11/18 02:08:04;;;;;;;39.60;18.60;;;;;;;4.59;77.07;99163.63;5073054;28;20031;-69
2021/11/18 02:10:42;;;;;;;33.30;17.00;;;;;;;4.54;76.92;99168.94;5091321;28;20119;-69
2021/11/18 02:13:10;;;;;;;35.97;17.75;;;;;;;4.54;77.26;99166.25;5088711;28;20814;-68
2021/11/18 02:15:45;;;;;;;39.88;18.98;;;;;;;4.52;77.64;99164.84;5090921;28;20050;-68
2021/11/18 02:18:23;;;;;;;39.85;17.85;;;;;;;4.54;77.30;99170.84;5088973;28;20060;-68
2021/11/18 02:20:53;;;;;;;33.83;16.35;;;;;;;4.56;77.21;99171.44;5089067;28;20032;-68
2021/11/18 02:23:30;;;;;;;33.33;15.70;;;;;;;4.54;77.54;99166.25;5091123;28;20024;-69
2021/11/18 02:25:57;;;;;;;27.88;14.10;;;;;;;4.54;77.59;99165.44;5089817;28;20159;-68
2021/11/18 02:28:25;;;;;;;26.85;14.63;;;;;;;4.53;77.36;99169.22;5090709;28;20020;-69
2021/11/18 02:30:53;;;;;;;24.75;13.90;;;;;;;4.50;77.77;99164.25;5090119;28;20070;-69
2021/11/18 02:33:20;;;;;;;29.38;13.63;;;;;;;4.49;77.66;99174.28;5072572;28;20195;-68
2021/11/18 02:35:47;;;;;;;29.33;13.95;;;;;;;4.49;77.50;99168.84;5088323;28;20055;-68
2021/11/18 02:38:14;;;;;;;29.23;14.77;;;;;;;4.50;77.52;99170.50;5090521;28;20571;-69
2021/11/18 02:40:42;;;;;;;38.97;18.50;;;;;;;4.54;78.20;99184.44;5090058;28;20023;-68
2021/11/18 02:43:14;;;;;;;43.80;21.67;;;;;;;4.56;78.11;99194.00;5090615;28;20702;-68
2021/11/18 02:45:43;;;;;;;29.35;15.95;;;;;;;4.57;78.27;99192.13;5090002;28;20028;-68
2021/11/18 02:48:10;;;;;;;28.53;15.13;;;;;;;4.57;78.33;99194.84;5089893;28;20028;-69
2021/11/18 02:50:39;;;;;;;31.63;16.23;;;;;;;4.56;77.62;99196.72;5089918;28;20262;-68
2021/11/18 02:53:06;;;;;;;29.17;15.60;;;;;;;4.57;78.23;99200.28;5090472;28;20024;-69
2021/11/18 02:55:39;;;;;;;23.45;12.32;;;;;;;4.58;77.95;99208.16;5089845;28;20047;-68
2021/11/18 02:58:05;;;;;;;26.15;13.88;;;;;;;4.59;78.42;99206.28;5090493;28;20380;-69
2021/11/18 03:00:36;;;;;;;26.65;14.00;;;;;;;4.57;77.97;99209.22;5089737;28;20016;-68
2021/11/18 03:03:02;;;;;;;27.30;14.57;;;;;;;4.54;78.52;99198.03;5090148;28;20621;-68
2021/11/18 03:05:27;;;;;;;26.63;14.38;;;;;;;4.55;77.90;99202.41;5089826;28;20028;-68
2021/11/18 03:07:57;;;;;;;25.08;13.23;;;;;;;4.53;78.60;99199.09;5090132;28;20024;-68
2021/11/18 03:10:23;;;;;;;;;;;;;;;4.53;78.58;99204.53;5089995;28;20391;-69
2021/11/18 03:12:48;;;;;;;33.38;18.50;;;;;;;4.53;78.06;99201.81;5090084;28;19956;-69
2021/11/18 03:15:14;;;;;;;25.30;14.48;;;;;;;4.52;78.45;99205.59;5089763;28;20049;-68
2021/11/18 03:17:41;;;;;;;30.30;15.60;;;;;;;4.51;78.29;99206.66;5071830;28;20016;-68
2021/11/18 03:20:10;;;;;;;29.52;16.75;;;;;;;4.52;78.52;99206.41;5089168;28;20024;-69
2021/11/18 03:22:36;;;;;;;27.63;15.63;;;;;;;4.54;78.80;99208.91;5089709;28;20035;-69
2021/11/18 03:25:03;;;;;;;23.23;13.00;;;;;;;4.54;78.94;99204.28;5089064;28;20032;-69
2021/11/18 03:27:28;;;;;;;27.20;14.57;;;;;;;4.52;78.45;99213.72;5084172;28;20535;-68
2021/11/18 03:29:54;;;;;;;29.42;15.15;;;;;;;4.47;78.60;99215.28;5087625;28;20396;-68
2021/11/18 03:32:19;;;;;;;27.25;15.23;;;;;;;4.43;78.77;99218.72;5089434;28;20016;-68
2021/11/18 03:34:45;;;;;;;25.98;14.52;;;;;;;4.44;78.77;99217.66;5089314;28;20028;-69
2021/11/18 03:37:10;;;;;;;21.60;12.50;;;;;;;4.43;78.76;99219.53;5089065;28;20020;-68
2021/11/18 03:39:38;;;;;;;24.20;14.07;;;;;;;4.43;78.66;99210.56;5089176;28;20460;-68
2021/11/18 03:42:06;;;;;;;24.02;14.20;;;;;;;4.41;78.38;99220.84;5090118;28;20020;-68
2021/11/18 03:44:32;;;;;;;24.00;14.52;;;;;;;4.42;79.59;99219.78;5089449;28;20054;-68
2021/11/18 03:47:04;;;;;;;23.60;14.27;;;;;;;4.43;78.90;99227.66;5089311;28;20461;-68
2021/11/18 03:49:29;;;;;;;23.38;13.43;;;;;;;4.43;78.78;99233.09;5089356;28;20112;-68
2021/11/18 03:51:58;;;;;;;26.65;15.13;;;;;;;4.44;79.47;99229.31;5089597;28;20487;-68
2021/11/18 03:54:26;;;;;;;24.17;14.60;;;;;;;4.47;79.50;99231.56;5089216;28;20513;-68
2021/11/18 03:56:52;;;;;;;26.58;15.00;;;;;;;4.47;78.69;99228.84;5089065;28;20024;-68
2021/11/18 03:59:23;;;;;;;27.67;15.52;;;;;;;4.45;79.63;99222.03;5071237;28;20027;-69
2021/11/18 04:01:50;;;;;;;28.58;16.25;;;;;;;4.45;79.50;99228.25;5089054;28;20027;-68
2021/11/18 04:04:19;;;;;;;26.77;16.15;;;;;;;4.47;79.32;99233.47;5089397;28;20388;-68
2021/11/18 04:06:45;;;;;;;26.95;15.80;;;;;;;4.52;79.62;99235.47;5089095;28;20103;-69
2021/11/18 04:09:12;;;;;;;21.98;14.05;;;;;;;4.53;79.04;99223.53;5089862;28;20047;-68
2021/11/18 04:11:41;;;;;;;24.55;14.75;;;;;;;4.54;79.59;99236.06;5090498;28;20034;-68
2021/11/18 04:14:08;;;;;;;25.40;15.32;;;;;;;4.55;79.56;99238.53;5090121;28;20028;-68
2021/11/18 04:16:33;;;;;;;22.88;14.05;;;;;;;4.57;79.25;99243.75;5090116;28;20090;-68
2021/11/18 04:18:59;;;;;;;25.55;14.57;;;;;;;4.56;79.18;99242.09;5090396;28;20128;-69
2021/11/18 04:21:28;;;;;;;28.45;16.05;;;;;;;4.55;79.58;99243.16;5089748;28;20470;-67
2021/11/18 04:23:53;;;;;;;22.33;12.90;;;;;;;4.51;79.09;99236.53;5072525;28;20032;-67
2021/11/18 04:26:19;;;;;;;22.52;13.32;;;;;;;4.53;79.43;99251.50;5090238;28;20035;-67
2021/11/18 04:28:44;;;;;;;26.42;14.30;;;;;;;4.54;79.49;99255.06;5090596;28;20028;-67
2021/11/18 04:31:16;;;;;;;26.63;15.05;;;;;;;4.55;79.34;99259.44;5089673;28;20071;-67
2021/11/18 04:33:41;;;;;;;23.60;13.18;;;;;;;4.54;79.67;99261.31;5090477;28;20400;-68
2021/11/18 04:36:09;;;;;;;24.45;13.68;;;;;;;4.56;79.74;99256.47;5092271;28;20024;-68
2021/11/18 04:38:35;;;;;;;21.23;13.35;;;;;;;4.59;79.82;99247.84;5096964;28;20108;-68
2021/11/18 04:41:03;;;;;;;28.23;15.68;;;;;;;4.60;79.62;99252.22;5096778;28;20107;-68
2021/11/18 04:43:29;;;;;;;25.38;14.10;;;;;;;4.61;79.49;99247.63;5096924;28;20081;-68
2021/11/18 04:45:54;;;;;;;22.35;13.02;;;;;;;4.61;79.35;99258.50;5096807;28;20024;-67
2021/11/18 04:48:20;;;;;;;24.98;13.20;;;;;;;4.59;79.74;99269.59;5096702;28;20024;-67
2021/11/18 04:50:46;;;;;;;23.27;12.95;;;;;;;4.59;79.29;99256.00;5096027;28;20433;-68
2021/11/18 04:53:12;;;;;;;20.92;12.40;;;;;;;4.57;79.61;99258.13;5096735;28;20027;-68
2021/11/18 04:55:38;;;;;;;22.75;12.68;;;;;;;4.57;79.23;99263.56;5096747;28;20028;-68
2021/11/18 04:58:05;;;;;;;25.25;14.02;;;;;;;4.57;79.55;99263.56;5096505;28;20069;-67
2021/11/18 05:00:45;;;;;;;30.98;16.15;;;;;;;4.59;79.63;99249.75;5078252;28;20017;-67
2021/11/18 05:03:12;;;;;;;39.25;19.30;;;;;;;4.60;79.20;99246.78;5097417;28;20025;-67
2021/11/18 05:05:37;;;;;;;41.25;23.40;;;;;;;4.56;78.75;99253.75;5096540;28;20144;-68
2021/11/18 05:08:03;;;;;;;47.25;26.20;;;;;;;4.53;79.37;99254.22;5096220;28;20028;-67
2021/11/18 05:10:32;;;;;;;48.17;24.92;;;;;;;4.50;79.56;99253.91;5096234;28;20035;-69
2021/11/18 05:12:58;;;;;;;43.17;20.67;;;;;;;4.49;78.99;99246.81;5096364;28;20450;-69
2021/11/18 05:15:27;;;;;;;35.05;17.30;;;;;;;4.53;78.89;99253.41;5078607;28;20123;-69
2021/11/18 05:17:53;;;;;;;28.73;15.25;;;;;;;4.57;79.38;99257.31;5096469;28;20484;-69
2021/11/18 05:20:21;;;;;;;25.67;15.38;;;;;;;4.57;79.53;99258.13;5095962;28;20161;-68
2021/11/18 05:22:47;;;;;;;24.10;13.82;;;;;;;4.61;79.21;99266.66;5096446;28;20044;-69
2021/11/18 05:25:14;;;;;;;25.58;13.90;;;;;;;4.63;79.40;99267.25;5096567;28;20035;-68
2021/11/18 05:27:40;;;;;;;25.00;14.90;;;;;;;4.61;78.75;99262.03;5096188;28;20023;-68
2021/11/18 05:30:08;;;;;;;27.83;15.88;;;;;;;4.60;79.43;99265.81;5096130;28;20032;-68
2021/11/18 05:32:34;;;;;;;29.40;15.13;;;;;;;4.57;78.73;99268.19;5096520;28;20028;-68
2021/11/18 05:35:00;;;;;;;27.52;14.98;;;;;;;4.54;78.93;99268.66;5078054;28;20035;-68
2021/11/18 05:37:25;;;;;;;26.23;15.02;;;;;;;4.54;79.21;99277.63;5096329;28;20038;-68
2021/11/18 05:39:51;;;;;;;28.05;15.63;;;;;;;4.55;79.43;99279.28;5096231;28;20024;-68
2021/11/18 05:42:17;;;;;;;26.90;13.82;;;;;;;4.56;79.46;99280.13;5096205;28;20089;-68
2021/11/18 05:44:43;;;;;;;30.67;16.58;;;;;;;4.55;78.94;99281.19;5078426;28;20031;-69
2021/11/18 05:47:08;;;;;;;28.50;15.27;;;;;;;4.54;78.86;99274.09;5095133;28;20491;-68
2021/11/18 05:49:34;;;;;;;29.88;15.80;;;;;;;4.54;79.07;99272.19;5092363;28;20020;-68
2021/11/18 05:51:59;;;;;;;30.35;15.82;;;;;;;4.57;79.45;99281.78;5093101;28;20533;-69
2021/11/18 05:54:25;;;;;;;32.97;19.02;;;;;;;4.57;79.64;99282.59;5093401;28;20028;-68
2021/11/18 05:56:50;;;;;;;39.35;19.75;;;;;;;4.58;79.42;99289.69;5074550;28;20065;-68
2021/11/18 05:59:16;;;;;;;46.05;23.92;;;;;;;4.61;79.52;99296.53;5074495;28;20020;-69
2021/11/18 06:01:41;;;;;;;34.03;17.30;;;;;;;4.62;78.93;99293.56;5092744;28;20053;-68
2021/11/18 06:04:09;;;;;;;52.78;23.23;;;;;;;4.61;79.18;99297.34;5093010;28;20016;-69
2021/11/18 06:06:35;;;;;;;60.67;26.13;;;;;;;4.61;78.68;99300.06;5092403;28;20020;-69
2021/11/18 06:09:03;;;;;;;63.78;31.17;;;;;;;4.62;78.94;99298.19;5074664;28;20479;-69
2021/11/18 06:11:31;;;;;;;115.93;49.58;;;;;;;4.62;78.75;99306.34;5075190;28;20028;-68
2021/11/18 06:13:57;;;;;;;74.72;36.58;;;;;;;4.61;78.76;99301.97;5092818;28;20020;-69
2021/11/18 06:16:25;;;;;;;74.18;38.17;;;;;;;4.59;78.86;99307.63;5092484;28;20115;-69
2021/11/18 06:18:51;;;;;;;59.30;30.88;;;;;;;4.59;79.00;99312.25;5092724;28;20566;-68
2021/11/18 06:21:17;;;;;;;47.58;25.10;;;;;;;4.60;79.20;99313.91;5073989;28;20422;-68
2021/11/18 06:23:43;;;;;;;40.75;21.88;;;;;;;4.58;79.51;99316.03;5092895;28;20115;-68
2021/11/18 06:26:10;;;;;;;36.00;18.92;;;;;;;4.57;78.64;99309.75;5092876;28;20035;-69
2021/11/18 06:28:36;;;;;;;38.63;21.38;;;;;;;4.59;79.37;99318.50;5092476;28;20028;-67
2021/11/18 06:31:10;;;;;;;39.70;21.83;;;;;;;4.58;78.77;99313.31;5092362;28;20052;-68
2021/11/18 06:33:36;;;;;;;36.70;19.17;;;;;;;4.61;78.83;99321.00;5074375;28;20036;-68
2021/11/18 06:36:02;;;;;;;44.00;25.27;;;;;;;4.61;79.49;99318.28;5092448;28;20162;-68
2021/11/18 06:38:28;;;;;;;42.13;22.90;;;;;;;4.61;79.47;99318.28;5092253;28;20035;-67
2021/11/18 06:40:54;;;;;;;40.03;22.35;;;;;;;4.59;79.27;99314.97;5091874;28;20686;-68
2021/11/18 06:43:21;;;;;;;38.78;23.13;;;;;;;4.60;79.09;99316.63;5092462;28;20081;-66
2021/11/18 06:45:47;;;;;;;36.30;20.65;;;;;;;4.59;79.01;99325.84;5092044;28;20036;-68
2021/11/18 06:48:15;;;;;;;36.85;21.08;;;;;;;4.62;79.24;99328.09;5091784;28;20030;-68
2021/11/18 06:50:42;;;;;;;42.60;24.73;;;;;;;4.62;79.07;99330.81;5091535;28;20035;-67
2021/11/18 06:53:07;;;;;;;39.58;21.38;;;;;;;4.62;79.56;99323.47;5092101;28;20024;-68
2021/11/18 06:55:34;;;;;;;36.95;19.85;;;;;;;4.66;79.38;99334.72;5091981;28;20040;-68
2021/11/18 06:57:59;;;;;;;37.13;19.05;;;;;;;4.68;79.33;99334.44;5091848;28;20028;-68
2021/11/18 07:00:25;;;;;;;40.30;21.67;;;;;;;4.71;78.82;99331.28;5072083;28;20500;-68
2021/11/18 07:02:51;;;;;;;70.43;41.28;;;;;;;4.73;79.30;99334.56;5091604;28;20093;-68
2021/11/18 07:05:17;;;;;;;54.63;30.50;;;;;;;4.76;79.53;99339.53;5091540;28;20418;-68
2021/11/18 07:07:43;;;;;;;58.72;38.13;;;;;;;4.83;79.35;99347.56;5091791;28;20091;-68
2021/11/18 07:10:10;;;;;;;53.97;34.97;;;;;;;4.85;78.88;99348.16;5090844;28;20111;-68
2021/11/18 07:12:37;;;;;;;45.88;26.08;;;;;;;4.88;78.96;99344.97;5091814;28;20020;-68
2021/11/18 07:15:04;;;;;;;53.33;33.05;;;;;;;4.90;79.25;99338.22;5073303;28;20077;-68
2021/11/18 07:17:31;;;;;;;54.33;29.48;;;;;;;4.93;79.11;99350.53;5073419;28;20028;-68
2021/11/18 07:19:57;;;;;;;59.13;30.70;;;;;;;4.92;78.79;99344.25;5090972;28;20380;-69
2021/11/18 07:22:23;;;;;;;72.75;31.38;;;;;;;4.95;78.83;99339.41;5090935;28;20032;-68
2021/11/18 07:24:51;;;;;;;72.30;33.78;;;;;;;4.96;78.66;99344.63;5092015;28;20095;-68
2021/11/18 07:27:16;;;;;;;49.35;26.20;;;;;;;4.97;78.40;99354.44;5091666;28;20043;-68
2021/11/18 07:29:42;;;;;;;52.83;27.92;;;;;;;4.98;78.66;99350.66;5090720;28;20492;-67
2021/11/18 07:32:07;;;;;;;56.10;30.85;;;;;;;5.00;78.59;99353.13;5091538;28;20049;-67
2021/11/18 07:34:32;;;;;;;47.35;22.55;;;;;;;5.01;78.87;99357.50;5091497;28;20024;-68
2021/11/18 07:36:58;;;;;;;47.47;21.58;;;;;;;5.02;78.55;99357.25;5073147;28;21590;-67
2021/11/18 07:39:23;;;;;;;46.97;22.20;;;;;;;5.04;79.08;99354.28;5091005;28;20016;-67
2021/11/18 07:41:51;;;;;;;42.63;21.45;;;;;;;5.09;78.33;99361.75;5090515;28;20415;-68
2021/11/18 07:44:17;;;;;;;39.03;20.40;;;;;;;5.11;78.56;99359.59;5090915;28;20074;-67
2021/11/18 07:46:43;;;;;;;34.33;18.05;;;;;;;5.14;78.13;99357.25;5090848;28;20024;-67
2021/11/18 07:49:10;;;;;;;31.67;16.40;;;;;;;5.18;77.86;99355.72;5072831;28;20028;-67
2021/11/18 07:51:38;;;;;;;31.85;15.32;;;;;;;5.22;77.73;99356.91;5089783;28;20036;-67
2021/11/18 07:54:04;;;;;;;31.38;17.38;;;;;;;5.24;77.41;99353.91;5090414;28;20127;-68
2021/11/18 07:56:30;;;;;;;33.95;17.98;;;;;;;5.30;77.29;99344.81;5071896;28;20565;-68
2021/11/18 07:58:56;;;;;;;32.85;17.63;;;;;;;5.37;77.29;99341.94;5088591;28;20039;-67
2021/11/18 08:01:22;;;;;;;28.55;15.35;;;;;;;5.41;76.46;99348.56;5089157;28;20055;-66
2021/11/18 08:03:48;;;;;;;28.25;13.85;;;;;;;5.42;76.15;99344.78;5090429;28;20032;-68
2021/11/18 08:06:23;;;;;;;26.25;13.38;;;;;;;5.44;76.50;99350.00;5087462;28;20024;-67
2021/11/18 08:08:51;;;;;;;29.40;14.20;;;;;;;5.46;76.64;99342.41;5089000;28;20028;-66
2021/11/18 08:11:22;;;;;;;25.63;13.23;;;;;;;5.47;75.85;99353.03;5088252;28;20016;-67
2021/11/18 08:13:48;;;;;;;24.98;12.57;;;;;;;5.48;76.07;99364.78;5071877;28;20076;-67
2021/11/18 08:16:14;;;;;;;23.10;12.63;;;;;;;5.49;76.48;99363.72;5088293;28;20035;-66
2021/11/18 08:18:41;;;;;;;24.42;12.95;;;;;;;5.49;75.50;99356.34;5069742;28;20024;-67
2021/11/18 08:21:07;;;;;;;23.08;12.32;;;;;;;5.49;75.66;99367.25;5087181;28;20077;-68
2021/11/18 08:23:33;;;;;;;24.33;11.48;;;;;;;5.49;75.52;99371.88;5089050;28;20105;-67
2021/11/18 08:26:02;;;;;;;23.15;11.73;;;;;;;5.50;75.55;99376.25;5089201;28;20914;-67
2021/11/18 08:28:28;;;;;;;24.05;12.32;;;;;;;5.56;75.17;99379.88;5089787;28;20115;-69
2021/11/18 08:30:54;;;;;;;24.75;13.68;;;;;;;5.58;75.03;99381.28;5088964;28;20142;-69
2021/11/18 08:33:20;;;;;;;22.13;12.02;;;;;;;5.62;74.77;99370.75;5089835;28;20032;-68
2021/11/18 08:35:46;;;;;;;23.55;13.02;;;;;;;5.65;74.68;99376.53;5088978;28;20051;-67
2021/11/18 08:38:15;;;;;;;29.52;14.43;;;;;;;5.74;74.33;99381.59;5091422;28;20043;-68
2021/11/18 08:40:51;;;;;;;30.42;13.40;;;;;;;5.84;74.81;99379.09;5089829;28;20030;-68
2021/11/18 08:43:18;;;;;;;31.17;13.32;;;;;;;5.96;74.50;99387.22;5088963;28;20016;-68
2021/11/18 08:45:44;;;;;;;27.98;12.63;;;;;;;5.98;74.13;99385.06;5088361;28;20024;-69
2021/11/18 08:48:11;;;;;;;31.90;14.10;;;;;;;6.01;72.82;99383.78;5088798;28;20024;-69
2021/11/18 08:50:40;;;;;;;29.08;14.13;;;;;;;6.00;73.45;99384.81;5088045;28;20064;-69
2021/11/18 08:53:06;;;;;;;39.25;15.38;;;;;;;5.96;72.93;99387.22;5089231;28;20012;-68
2021/11/18 08:55:35;;;;;;;26.80;13.38;;;;;;;5.96;73.32;99388.03;5089137;28;20111;-68
2021/11/18 08:58:01;;;;;;;29.05;13.15;;;;;;;6.00;72.98;99393.00;5086924;28;20404;-69
2021/11/18 09:00:32;;;;;;;24.50;11.90;;;;;;;6.05;72.95;99396.69;5088822;28;20013;-68
2021/11/18 09:02:58;;;;;;;27.02;13.27;;;;;;;6.14;72.26;99404.44;5087442;28;20455;-69
2021/11/18 09:05:26;;;;;;;28.27;12.38;;;;;;;6.17;72.34;99406.69;5088837;28;20095;-68
2021/11/18 09:07:53;;;;;;;29.50;13.52;;;;;;;6.20;72.71;99411.66;5088591;28;20230;-68
2021/11/18 09:10:19;;;;;;;26.50;12.60;;;;;;;6.28;72.58;99410.44;5088003;28;20046;-68
2021/11/18 09:12:46;;;;;;;30.88;13.75;;;;;;;6.40;73.07;99408.47;5086482;28;20039;-69
2021/11/18 09:15:14;;;;;;;26.75;12.82;;;;;;;6.52;72.88;99411.16;5088703;28;20032;-68
2021/11/18 09:17:40;;;;;;;26.50;11.48;;;;;;;6.58;72.25;99414.78;5087733;28;20016;-68
2021/11/18 09:20:11;;;;;;;20.17;10.05;;;;;;;6.57;71.53;99416.66;5088826;28;20111;-69
2021/11/18 09:22:38;;;;;;;18.17;9.68;;;;;;;6.53;71.31;99424.53;5089644;28;20028;-68
2021/11/18 09:25:07;;;;;;;25.55;11.23;;;;;;;6.50;71.63;99426.91;5093116;28;20128;-67
2021/11/18 09:27:40;;;;;;;23.02;10.48;;;;;;;6.47;71.32;99419.22;5093238;28;20032;-68
2021/11/18 09:30:11;;;;;;;19.48;10.32;;;;;;;6.45;71.47;99424.09;5092570;28;20084;-67
2021/11/18 09:32:37;;;;;;;16.85;8.98;;;;;;;6.41;70.70;99418.28;5092870;28;20035;-67
2021/11/18 09:35:08;;;;;;;20.30;11.68;;;;;;;6.37;71.19;99422.56;5092325;28;20094;-69
2021/11/18 09:37:33;;;;;;;20.65;10.57;;;;;;;6.37;71.13;99431.59;5085466;28;20021;-68
2021/11/18 09:39:59;;;;;;;21.35;10.88;;;;;;;6.35;71.43;99431.00;5073935;28;20024;-67
2021/11/18 09:42:34;;;;;;;21.67;10.13;;;;;;;6.37;71.04;99431.59;5092191;28;20487;-69
2021/11/18 09:45:15;;;;;;;20.10;9.45;;;;;;;6.40;71.21;99435.72;5090622;28;20032;-68
2021/11/18 09:47:54;;;;;;;22.92;10.90;;;;;;;6.45;70.92;99441.25;5089944;28;20028;-68
2021/11/18 09:50:27;;;;;;;18.98;10.02;;;;;;;6.48;70.41;99439.97;5089808;28;20563;-68
2021/11/18 09:53:02;;;;;;;25.10;11.32;;;;;;;6.45;70.63;99438.53;5091624;28;20027;-68
2021/11/18 09:55:41;;;;;;;25.17;11.25;;;;;;;6.46;70.77;99440.19;5091905;28;20082;-70
2021/11/18 09:58:29;;;;;;;24.25;11.05;;;;;;;6.51;71.30;99436.75;5092324;28;20055;-74
2021/11/18 10:01:32;;;;;;;27.40;11.32;;;;;;;6.54;70.69;99436.22;5091948;28;20035;-76
2021/11/18 10:04:09;;;;;;;28.15;12.25;;;;;;;6.56;70.61;99417.72;5091311;28;20055;-71
2021/11/18 10:06:39;;;;;;;23.88;11.02;;;;;;;6.53;70.10;99421.78;5089135;28;20709;-72
2021/11/18 10:09:10;;;;;;;24.08;10.25;;;;;;;6.52;70.05;99414.69;5089623;28;20024;-71
2021/11/18 10:11:53;;;;;;;23.48;9.85;;;;;;;6.54;70.24;99414.44;5091331;28;20070;-68
2021/11/18 10:14:31;;;;;;;20.73;9.27;;;;;;;6.56;70.23;99412.28;5072494;28;20039;-70
2021/11/18 10:17:17;;;;;;;18.25;7.35;;;;;;;6.59;69.44;99409.06;5091892;28;20154;-70
2021/11/18 10:19:49;;;;;;;20.88;8.52;;;;;;;6.61;69.63;99408.84;5083247;28;20169;-70
2021/11/18 10:22:16;;;;;;;24.10;9.50;;;;;;;6.64;69.71;99416.53;5089540;28;20043;-69
2021/11/18 10:24:44;;;;;;;18.80;8.23;;;;;;;6.65;69.95;99410.00;5090525;28;20028;-73
2021/11/18 10:27:19;;;;;;;54.47;19.40;;;;;;;6.68;69.56;99404.06;5090457;28;20062;-71
2021/11/18 10:30:02;;;;;;;35.75;14.02;;;;;;;6.69;69.06;99405.72;5087250;28;20052;-69
2021/11/18 10:32:33;;;;;;;17.90;8.27;;;;;;;6.72;68.77;99410.66;5090423;28;20535;-68
2021/11/18 10:35:09;;;;;;;34.35;14.55;;;;;;;6.75;68.79;99404.69;5089526;28;20032;-69
2021/11/18 10:37:42;;;;;;;26.17;12.20;;;;;;;6.78;68.77;99403.38;5089563;28;20032;-70
2021/11/18 10:40:27;;;;;;;27.38;12.38;;;;;;;6.81;68.61;99394.72;5089416;28;20024;-70
2021/11/18 10:43:14;;;;;;;25.02;12.43;;;;;;;6.87;68.83;99393.72;5090118;28;20035;-69
2021/11/18 10:45:52;;;;;;;36.90;20.08;;;;;;;6.91;69.01;99388.59;5090008;28;20035;-70
2021/11/18 10:48:26;;;;;;;31.00;15.55;;;;;;;7.00;68.90;99389.81;5089503;28;20027;-70
2021/11/18 10:50:54;;;;;;;21.30;11.20;;;;;;;7.14;68.85;99396.56;5089369;28;20020;-69
2021/11/18 10:53:20;;;;;;;17.20;8.23;;;;;;;7.26;68.43;99391.03;5090644;28;20399;-69
2021/11/18 10:56:01;;;;;;;18.75;8.80;;;;;;;7.43;67.82;99384.69;5090508;28;20024;-70
2021/11/18 10:58:27;;;;;;;18.60;8.65;;;;;;;7.56;68.34;99386.22;5089208;28;20032;-69
2021/11/18 11:01:15;;;;;;;17.83;9.20;;;;;;;7.64;68.13;99380.31;5070796;28;20036;-69
2021/11/18 11:03:44;;;;;;;16.77;8.98;;;;;;;7.67;68.63;99374.34;5087493;28;20361;-70
2021/11/18 11:06:15;;;;;;;23.02;10.88;;;;;;;7.66;67.43;99377.34;5087892;28;20058;-70
2021/11/18 11:09:03;;;;;;;20.63;9.50;;;;;;;7.60;67.25;99380.00;5089690;28;20138;-73
2021/11/18 11:11:57;;;;;;;21.98;9.90;;;;;;;7.53;66.80;99375.81;5073896;28;20566;-70
2021/11/18 11:14:41;;;;;;;18.63;9.00;;;;;;;7.45;67.62;99380.63;5088620;28;20373;-68
2021/11/18 11:17:25;;;;;;;18.20;10.13;;;;;;;7.41;66.55;99384.94;5072172;28;20035;-69
2021/11/18 11:19:56;;;;;;;18.92;9.65;;;;;;;7.35;66.87;99374.19;5071952;28;20055;-68
2021/11/18 11:22:52;;;;;;;21.27;9.88;;;;;;;7.31;67.55;99371.16;5089190;28;20434;-71
2021/11/18 11:25:22;;;;;;;26.35;11.77;;;;;;;7.27;67.46;99365.41;5089186;28;20052;-69
2021/11/18 11:28:35;;;;;;;26.88;11.18;;;;;;;7.23;67.38;99349.75;5072799;28;20045;-70
2021/11/18 11:31:14;;;;;;;19.38;8.60;;;;;;;7.18;67.53;99357.88;4986836;28;20054;-69
2021/11/18 11:33:45;;;;;;;19.52;9.43;;;;;;;7.14;67.91;99350.19;5057371;28;20433;-69